sensor_id;sensor_type;location;lat;lon;timestamp;P1;durP1;ratioP1;P2;durP2;ratioP2
75680;SDS011;64294;49.176;16.626;2023-05-01T00:00:01;23.20;;;12.02;;
75680;SDS011;64294;49.176;16.626;2023-05-01T00:02:29;19.88;;;11.15;;
75680;SDS011;64294;49.176;16.626;2023-05-01T00:04:54;21.00;;;10.00;;
75680;SDS011;64294;49.176;16.626;2023-05-01T00:07:20;16.27;;;9.82;;
75680;SDS011;64294;49.176;16.626;2023-05-01T00:09:46;13.90;;;8.60;;
75680;SDS011;64294;49.176;16.626;2023-05-01T00:12:12;14.85;;;8.38;;
75680;SDS011;64294;49.176;16.626;2023-05-01T00:14:37;15.60;;;7.85;;
75680;SDS011;64294;49.176;16.626;2023-05-01T00:17:02;14.25;;;6.70;;
75680;SDS011;64294;49.176;16.626;2023-05-01T00:19:28;14.57;;;7.03;;
75680;SDS011;64294;49.176;16.626;2023-05-01T00:21:53;13.50;;;7.35;;
75680;SDS011;64294;49.176;16.626;2023-05-01T00:24:18;14.32;;;7.50;;
75680;SDS011;64294;49.176;16.626;2023-05-01T00:26:44;13.02;;;6.70;;
75680;SDS011;64294;49.176;16.626;2023-05-01T00:29:10;14.00;;;6.82;;
75680;SDS011;64294;49.176;16.626;2023-05-01T00:31:35;17.30;;;6.90;;
75680;SDS011;64294;49.176;16.626;2023-05-01T00:34:01;14.82;;;7.45;;
75680;SDS011;64294;49.176;16.626;2023-05-01T00:36:26;14.05;;;6.57;;
75680;SDS011;64294;49.176;16.626;2023-05-01T00:38:52;16.77;;;6.70;;
75680;SDS011;64294;49.176;16.626;2023-05-01T00:41:17;12.90;;;6.45;;
75680;SDS011;64294;49.176;16.626;2023-05-01T00:43:43;15.15;;;6.80;;
75680;SDS011;64294;49.176;16.626;2023-05-01T00:46:08;14.63;;;6.57;;
75680;SDS011;64294;49.176;16.626;2023-05-01T00:48:35;20.80;;;8.60;;
75680;SDS011;64294;49.176;16.626;2023-05-01T00:51:00;14.25;;;8.27;;
75680;SDS011;64294;49.176;16.626;2023-05-01T00:53:30;16.83;;;9.23;;
75680;SDS011;64294;49.176;16.626;2023-05-01T00:55:57;17.63;;;8.77;;
75680;SDS011;64294;49.176;16.626;2023-05-01T00:58:23;18.25;;;8.48;;
75680;SDS011;64294;49.176;16.626;2023-05-01T01:00:48;16.45;;;9.23;;
75680;SDS011;64294;49.176;16.626;2023-05-01T01:03:14;17.00;;;8.57;;
75680;SDS011;64294;49.176;16.626;2023-05-01T01:05:50;16.45;;;9.10;;
75680;SDS011;64294;49.176;16.626;2023-05-01T01:08:37;17.98;;;9.27;;
75680;SDS011;64294;49.176;16.626;2023-05-01T01:11:42;18.30;;;9.25;;
75680;SDS011;64294;49.176;16.626;2023-05-01T01:17:20;22.00;;;10.02;;
75680;SDS011;64294;49.176;16.626;2023-05-01T01:20:03;15.65;;;9.57;;
75680;SDS011;64294;49.176;16.626;2023-05-01T01:22:45;16.70;;;9.23;;
75680;SDS011;64294;49.176;16.626;2023-05-01T01:35:50;16.27;;;7.65;;
75680;SDS011;64294;49.176;16.626;2023-05-01T01:38:20;16.60;;;7.40;;
75680;SDS011;64294;49.176;16.626;2023-05-01T01:40:58;20.92;;;8.50;;
75680;SDS011;64294;49.176;16.626;2023-05-01T01:43:45;20.95;;;8.73;;
75680;SDS011;64294;49.176;16.626;2023-05-01T01:46:17;18.23;;;8.85;;
75680;SDS011;64294;49.176;16.626;2023-05-01T01:48:45;17.23;;;9.80;;
75680;SDS011;64294;49.176;16.626;2023-05-01T01:51:15;15.98;;;8.88;;
75680;SDS011;64294;49.176;16.626;2023-05-01T01:53:45;19.92;;;9.55;;
75680;SDS011;64294;49.176;16.626;2023-05-01T01:56:16;18.38;;;8.68;;
75680;SDS011;64294;49.176;16.626;2023-05-01T01:58:44;15.20;;;9.05;;
75680;SDS011;64294;49.176;16.626;2023-05-01T02:01:11;17.65;;;8.48;;
75680;SDS011;64294;49.176;16.626;2023-05-01T02:03:39;15.98;;;8.70;;
75680;SDS011;64294;49.176;16.626;2023-05-01T02:06:05;17.08;;;9.70;;
75680;SDS011;64294;49.176;16.626;2023-05-01T02:08:32;16.73;;;8.50;;
75680;SDS011;64294;49.176;16.626;2023-05-01T02:11:00;15.52;;;8.50;;
75680;SDS011;64294;49.176;16.626;2023-05-01T02:13:28;16.73;;;7.97;;
75680;SDS011;64294;49.176;16.626;2023-05-01T02:15:57;18.48;;;7.95;;
75680;SDS011;64294;49.176;16.626;2023-05-01T02:18:24;17.92;;;7.93;;
75680;SDS011;64294;49.176;16.626;2023-05-01T02:20:51;16.95;;;7.80;;
75680;SDS011;64294;49.176;16.626;2023-05-01T02:23:17;15.57;;;8.43;;
75680;SDS011;64294;49.176;16.626;2023-05-01T02:25:42;14.40;;;6.78;;
75680;SDS011;64294;49.176;16.626;2023-05-01T02:28:11;14.45;;;6.15;;
75680;SDS011;64294;49.176;16.626;2023-05-01T02:30:38;12.80;;;5.35;;
75680;SDS011;64294;49.176;16.626;2023-05-01T02:33:05;14.30;;;5.15;;
75680;SDS011;64294;49.176;16.626;2023-05-01T02:35:31;11.15;;;5.05;;
75680;SDS011;64294;49.176;16.626;2023-05-01T02:37:56;11.02;;;5.03;;
75680;SDS011;64294;49.176;16.626;2023-05-01T02:40:22;10.45;;;4.80;;
75680;SDS011;64294;49.176;16.626;2023-05-01T02:42:48;10.27;;;4.55;;
75680;SDS011;64294;49.176;16.626;2023-05-01T02:45:21;8.95;;;4.82;;
75680;SDS011;64294;49.176;16.626;2023-05-01T02:47:49;14.32;;;4.50;;
75680;SDS011;64294;49.176;16.626;2023-05-01T02:50:16;10.77;;;4.35;;
75680;SDS011;64294;49.176;16.626;2023-05-01T02:52:43;9.82;;;4.50;;
75680;SDS011;64294;49.176;16.626;2023-05-01T02:55:10;9.73;;;4.22;;
75680;SDS011;64294;49.176;16.626;2023-05-01T02:57:36;11.90;;;4.95;;
75680;SDS011;64294;49.176;16.626;2023-05-01T03:00:01;8.18;;;4.35;;
75680;SDS011;64294;49.176;16.626;2023-05-01T03:02:27;8.90;;;4.68;;
75680;SDS011;64294;49.176;16.626;2023-05-01T03:04:52;12.25;;;4.78;;
75680;SDS011;64294;49.176;16.626;2023-05-01T03:07:18;11.50;;;4.82;;
75680;SDS011;64294;49.176;16.626;2023-05-01T03:09:43;11.30;;;5.15;;
75680;SDS011;64294;49.176;16.626;2023-05-01T03:12:09;23.15;;;8.45;;
75680;SDS011;64294;49.176;16.626;2023-05-01T03:14:34;9.50;;;4.75;;
75680;SDS011;64294;49.176;16.626;2023-05-01T03:17:00;8.40;;;4.40;;
75680;SDS011;64294;49.176;16.626;2023-05-01T03:19:25;10.88;;;5.07;;
75680;SDS011;64294;49.176;16.626;2023-05-01T03:21:51;10.10;;;5.07;;
75680;SDS011;64294;49.176;16.626;2023-05-01T03:24:16;9.85;;;3.97;;
75680;SDS011;64294;49.176;16.626;2023-05-01T03:26:41;8.20;;;5.03;;
75680;SDS011;64294;49.176;16.626;2023-05-01T03:29:07;11.50;;;5.15;;
75680;SDS011;64294;49.176;16.626;2023-05-01T03:31:32;9.73;;;4.82;;
75680;SDS011;64294;49.176;16.626;2023-05-01T03:33:58;10.90;;;4.45;;
75680;SDS011;64294;49.176;16.626;2023-05-01T03:36:23;11.63;;;4.35;;
75680;SDS011;64294;49.176;16.626;2023-05-01T03:38:49;11.00;;;4.78;;
75680;SDS011;64294;49.176;16.626;2023-05-01T03:41:14;11.40;;;4.85;;
75680;SDS011;64294;49.176;16.626;2023-05-01T03:43:40;10.70;;;4.65;;
75680;SDS011;64294;49.176;16.626;2023-05-01T03:46:06;7.55;;;4.53;;
75680;SDS011;64294;49.176;16.626;2023-05-01T03:48:31;17.00;;;4.85;;
75680;SDS011;64294;49.176;16.626;2023-05-01T03:50:57;9.25;;;4.53;;
75680;SDS011;64294;49.176;16.626;2023-05-01T03:53:23;7.82;;;4.22;;
75680;SDS011;64294;49.176;16.626;2023-05-01T03:55:48;14.18;;;4.88;;
75680;SDS011;64294;49.176;16.626;2023-05-01T03:58:14;8.55;;;4.05;;
75680;SDS011;64294;49.176;16.626;2023-05-01T04:00:39;11.40;;;4.57;;
75680;SDS011;64294;49.176;16.626;2023-05-01T04:03:05;10.10;;;4.50;;
75680;SDS011;64294;49.176;16.626;2023-05-01T04:05:31;10.95;;;4.85;;
75680;SDS011;64294;49.176;16.626;2023-05-01T04:07:57;11.80;;;4.70;;
75680;SDS011;64294;49.176;16.626;2023-05-01T04:10:23;9.85;;;5.40;;
75680;SDS011;64294;49.176;16.626;2023-05-01T04:12:48;10.93;;;4.85;;
75680;SDS011;64294;49.176;16.626;2023-05-01T04:15:14;9.68;;;4.60;;
75680;SDS011;64294;49.176;16.626;2023-05-01T04:17:39;10.57;;;4.80;;
75680;SDS011;64294;49.176;16.626;2023-05-01T04:20:07;9.20;;;4.95;;
75680;SDS011;64294;49.176;16.626;2023-05-01T04:22:33;16.10;;;4.72;;
75680;SDS011;64294;49.176;16.626;2023-05-01T04:24:59;12.93;;;5.10;;
75680;SDS011;64294;49.176;16.626;2023-05-01T04:27:24;13.85;;;5.57;;
75680;SDS011;64294;49.176;16.626;2023-05-01T04:29:50;13.38;;;5.32;;
75680;SDS011;64294;49.176;16.626;2023-05-01T04:32:16;10.30;;;5.38;;
75680;SDS011;64294;49.176;16.626;2023-05-01T04:34:41;11.30;;;6.03;;
75680;SDS011;64294;49.176;16.626;2023-05-01T04:37:10;10.93;;;5.55;;
75680;SDS011;64294;49.176;16.626;2023-05-01T04:39:36;11.23;;;5.45;;
75680;SDS011;64294;49.176;16.626;2023-05-01T04:42:02;10.88;;;5.55;;
75680;SDS011;64294;49.176;16.626;2023-05-01T04:44:28;9.48;;;5.57;;
75680;SDS011;64294;49.176;16.626;2023-05-01T04:46:54;10.07;;;4.85;;
75680;SDS011;64294;49.176;16.626;2023-05-01T04:49:20;9.32;;;5.22;;
75680;SDS011;64294;49.176;16.626;2023-05-01T04:51:46;15.73;;;5.13;;
75680;SDS011;64294;49.176;16.626;2023-05-01T04:54:11;11.35;;;5.10;;
75680;SDS011;64294;49.176;16.626;2023-05-01T04:56:36;9.85;;;4.72;;
75680;SDS011;64294;49.176;16.626;2023-05-01T04:59:02;12.35;;;5.28;;
75680;SDS011;64294;49.176;16.626;2023-05-01T05:01:27;25.42;;;11.93;;
75680;SDS011;64294;49.176;16.626;2023-05-01T05:03:53;18.55;;;9.73;;
75680;SDS011;64294;49.176;16.626;2023-05-01T05:06:19;12.43;;;5.90;;
75680;SDS011;64294;49.176;16.626;2023-05-01T05:08:45;9.73;;;4.88;;
75680;SDS011;64294;49.176;16.626;2023-05-01T05:11:10;10.02;;;4.88;;
75680;SDS011;64294;49.176;16.626;2023-05-01T05:13:36;13.95;;;5.10;;
75680;SDS011;64294;49.176;16.626;2023-05-01T05:16:02;11.35;;;5.40;;
75680;SDS011;64294;49.176;16.626;2023-05-01T05:18:27;12.00;;;5.05;;
75680;SDS011;64294;49.176;16.626;2023-05-01T05:20:53;13.18;;;5.25;;
75680;SDS011;64294;49.176;16.626;2023-05-01T05:23:18;11.95;;;5.38;;
75680;SDS011;64294;49.176;16.626;2023-05-01T05:25:43;12.07;;;5.55;;
75680;SDS011;64294;49.176;16.626;2023-05-01T05:28:09;10.60;;;5.30;;
75680;SDS011;64294;49.176;16.626;2023-05-01T05:30:34;11.55;;;5.05;;
75680;SDS011;64294;49.176;16.626;2023-05-01T05:33:00;9.70;;;5.47;;
75680;SDS011;64294;49.176;16.626;2023-05-01T05:35:25;16.80;;;5.38;;
75680;SDS011;64294;49.176;16.626;2023-05-01T05:37:51;14.48;;;5.72;;
75680;SDS011;64294;49.176;16.626;2023-05-01T05:40:16;10.82;;;5.50;;
75680;SDS011;64294;49.176;16.626;2023-05-01T05:42:44;11.82;;;5.38;;
75680;SDS011;64294;49.176;16.626;2023-05-01T05:45:09;13.00;;;5.40;;
75680;SDS011;64294;49.176;16.626;2023-05-01T05:47:35;10.02;;;5.32;;
75680;SDS011;64294;49.176;16.626;2023-05-01T05:50:01;13.90;;;5.68;;
75680;SDS011;64294;49.176;16.626;2023-05-01T05:52:26;15.07;;;5.50;;
75680;SDS011;64294;49.176;16.626;2023-05-01T05:54:52;14.70;;;5.75;;
75680;SDS011;64294;49.176;16.626;2023-05-01T05:57:17;9.50;;;5.45;;
75680;SDS011;64294;49.176;16.626;2023-05-01T05:59:43;14.82;;;6.13;;
75680;SDS011;64294;49.176;16.626;2023-05-01T06:02:09;15.63;;;6.60;;
75680;SDS011;64294;49.176;16.626;2023-05-01T06:04:34;13.18;;;5.93;;
75680;SDS011;64294;49.176;16.626;2023-05-01T06:06:59;17.58;;;6.93;;
75680;SDS011;64294;49.176;16.626;2023-05-01T06:09:25;16.13;;;6.22;;
75680;SDS011;64294;49.176;16.626;2023-05-01T06:11:50;17.77;;;6.72;;
75680;SDS011;64294;49.176;16.626;2023-05-01T06:14:16;19.65;;;6.50;;
75680;SDS011;64294;49.176;16.626;2023-05-01T06:16:41;16.20;;;6.55;;
75680;SDS011;64294;49.176;16.626;2023-05-01T06:19:07;13.68;;;6.13;;
75680;SDS011;64294;49.176;16.626;2023-05-01T06:21:34;20.40;;;6.47;;
75680;SDS011;64294;49.176;16.626;2023-05-01T06:24:00;21.13;;;7.53;;
75680;SDS011;64294;49.176;16.626;2023-05-01T06:26:25;15.55;;;6.60;;
75680;SDS011;64294;49.176;16.626;2023-05-01T06:28:52;17.23;;;6.63;;
75680;SDS011;64294;49.176;16.626;2023-05-01T06:31:18;17.45;;;8.13;;
75680;SDS011;64294;49.176;16.626;2023-05-01T06:33:43;15.80;;;6.80;;
75680;SDS011;64294;49.176;16.626;2023-05-01T06:36:09;15.52;;;7.90;;
75680;SDS011;64294;49.176;16.626;2023-05-01T06:38:34;13.93;;;6.40;;
75680;SDS011;64294;49.176;16.626;2023-05-01T06:41:00;17.63;;;6.40;;
75680;SDS011;64294;49.176;16.626;2023-05-01T06:43:25;12.50;;;6.00;;
75680;SDS011;64294;49.176;16.626;2023-05-01T06:45:54;12.98;;;5.60;;
75680;SDS011;64294;49.176;16.626;2023-05-01T06:48:20;10.98;;;5.57;;
75680;SDS011;64294;49.176;16.626;2023-05-01T06:50:45;10.68;;;4.78;;
75680;SDS011;64294;49.176;16.626;2023-05-01T06:53:11;10.02;;;4.82;;
75680;SDS011;64294;49.176;16.626;2023-05-01T06:55:36;9.18;;;4.72;;
75680;SDS011;64294;49.176;16.626;2023-05-01T06:58:02;9.68;;;4.50;;
75680;SDS011;64294;49.176;16.626;2023-05-01T07:00:28;7.85;;;4.35;;
75680;SDS011;64294;49.176;16.626;2023-05-01T07:02:54;10.38;;;4.60;;
75680;SDS011;64294;49.176;16.626;2023-05-01T07:05:19;8.70;;;4.18;;
75680;SDS011;64294;49.176;16.626;2023-05-01T07:07:45;11.68;;;4.35;;
75680;SDS011;64294;49.176;16.626;2023-05-01T07:10:11;8.32;;;3.85;;
75680;SDS011;64294;49.176;16.626;2023-05-01T07:12:36;9.40;;;4.55;;
75680;SDS011;64294;49.176;16.626;2023-05-01T07:15:02;9.10;;;4.20;;
75680;SDS011;64294;49.176;16.626;2023-05-01T07:17:28;8.20;;;4.40;;
75680;SDS011;64294;49.176;16.626;2023-05-01T07:19:53;7.28;;;4.20;;
75680;SDS011;64294;49.176;16.626;2023-05-01T07:22:19;7.85;;;4.65;;
75680;SDS011;64294;49.176;16.626;2023-05-01T07:24:44;11.38;;;4.30;;
75680;SDS011;64294;49.176;16.626;2023-05-01T07:27:10;9.43;;;5.05;;
75680;SDS011;64294;49.176;16.626;2023-05-01T07:29:37;11.32;;;4.88;;
75680;SDS011;64294;49.176;16.626;2023-05-01T07:32:03;8.20;;;5.22;;
75680;SDS011;64294;49.176;16.626;2023-05-01T07:34:30;11.65;;;4.88;;
75680;SDS011;64294;49.176;16.626;2023-05-01T07:36:59;10.45;;;5.57;;
75680;SDS011;64294;49.176;16.626;2023-05-01T07:39:24;10.23;;;4.88;;
75680;SDS011;64294;49.176;16.626;2023-05-01T07:41:50;8.65;;;4.85;;
75680;SDS011;64294;49.176;16.626;2023-05-01T07:44:15;9.07;;;4.82;;
75680;SDS011;64294;49.176;16.626;2023-05-01T07:46:41;8.93;;;4.80;;
75680;SDS011;64294;49.176;16.626;2023-05-01T07:49:07;9.43;;;4.85;;
75680;SDS011;64294;49.176;16.626;2023-05-01T07:51:33;8.80;;;4.75;;
75680;SDS011;64294;49.176;16.626;2023-05-01T07:53:58;10.27;;;5.40;;
75680;SDS011;64294;49.176;16.626;2023-05-01T07:56:28;7.82;;;4.88;;
75680;SDS011;64294;49.176;16.626;2023-05-01T07:58:54;9.52;;;5.30;;
75680;SDS011;64294;49.176;16.626;2023-05-01T08:01:20;8.75;;;5.07;;
75680;SDS011;64294;49.176;16.626;2023-05-01T08:03:45;7.78;;;5.00;;
75680;SDS011;64294;49.176;16.626;2023-05-01T08:06:11;8.70;;;5.05;;
75680;SDS011;64294;49.176;16.626;2023-05-01T08:08:36;9.25;;;5.60;;
75680;SDS011;64294;49.176;16.626;2023-05-01T08:11:02;9.80;;;5.22;;
75680;SDS011;64294;49.176;16.626;2023-05-01T08:13:27;9.40;;;5.43;;
75680;SDS011;64294;49.176;16.626;2023-05-01T08:15:52;8.80;;;5.45;;
75680;SDS011;64294;49.176;16.626;2023-05-01T08:18:18;8.65;;;5.05;;
75680;SDS011;64294;49.176;16.626;2023-05-01T08:20:45;9.02;;;5.70;;
75680;SDS011;64294;49.176;16.626;2023-05-01T08:23:16;10.15;;;5.18;;
75680;SDS011;64294;49.176;16.626;2023-05-01T08:25:42;9.68;;;4.78;;
75680;SDS011;64294;49.176;16.626;2023-05-01T08:28:11;9.30;;;4.65;;
75680;SDS011;64294;49.176;16.626;2023-05-01T08:30:40;10.10;;;4.95;;
75680;SDS011;64294;49.176;16.626;2023-05-01T08:33:05;8.57;;;4.70;;
75680;SDS011;64294;49.176;16.626;2023-05-01T08:35:31;9.35;;;4.90;;
75680;SDS011;64294;49.176;16.626;2023-05-01T08:37:56;7.78;;;5.00;;
75680;SDS011;64294;49.176;16.626;2023-05-01T08:40:22;7.65;;;5.13;;
75680;SDS011;64294;49.176;16.626;2023-05-01T08:42:50;10.27;;;5.22;;
75680;SDS011;64294;49.176;16.626;2023-05-01T08:45:15;7.63;;;5.35;;
75680;SDS011;64294;49.176;16.626;2023-05-01T08:47:43;8.63;;;5.10;;
75680;SDS011;64294;49.176;16.626;2023-05-01T08:50:10;7.30;;;5.28;;
75680;SDS011;64294;49.176;16.626;2023-05-01T08:52:41;7.28;;;4.72;;
75680;SDS011;64294;49.176;16.626;2023-05-01T08:55:10;8.18;;;4.57;;
75680;SDS011;64294;49.176;16.626;2023-05-01T08:57:38;6.70;;;4.55;;
75680;SDS011;64294;49.176;16.626;2023-05-01T09:00:08;9.40;;;5.07;;
75680;SDS011;64294;49.176;16.626;2023-05-01T09:02:38;9.15;;;4.75;;
75680;SDS011;64294;49.176;16.626;2023-05-01T09:05:07;9.98;;;4.82;;
75680;SDS011;64294;49.176;16.626;2023-05-01T09:07:33;8.48;;;4.95;;
75680;SDS011;64294;49.176;16.626;2023-05-01T09:09:59;9.27;;;5.20;;
75680;SDS011;64294;49.176;16.626;2023-05-01T09:12:25;11.10;;;4.95;;
75680;SDS011;64294;49.176;16.626;2023-05-01T09:14:54;8.55;;;4.85;;
75680;SDS011;64294;49.176;16.626;2023-05-01T09:17:20;10.45;;;5.07;;
75680;SDS011;64294;49.176;16.626;2023-05-01T09:19:47;8.98;;;5.20;;
75680;SDS011;64294;49.176;16.626;2023-05-01T09:22:14;8.90;;;5.20;;
75680;SDS011;64294;49.176;16.626;2023-05-01T09:24:42;9.57;;;5.45;;
75680;SDS011;64294;49.176;16.626;2023-05-01T09:27:08;7.40;;;4.90;;
75680;SDS011;64294;49.176;16.626;2023-05-01T09:29:38;8.48;;;5.00;;
75680;SDS011;64294;49.176;16.626;2023-05-01T09:32:38;8.15;;;5.47;;
75680;SDS011;64294;49.176;16.626;2023-05-01T09:37:38;8.52;;;5.47;;
75680;SDS011;64294;49.176;16.626;2023-05-01T09:40:08;11.68;;;5.35;;
75680;SDS011;64294;49.176;16.626;2023-05-01T09:42:35;15.65;;;6.20;;
75680;SDS011;64294;49.176;16.626;2023-05-01T09:45:04;11.98;;;5.20;;
75680;SDS011;64294;49.176;16.626;2023-05-01T09:47:31;10.95;;;5.20;;
75680;SDS011;64294;49.176;16.626;2023-05-01T09:49:58;19.10;;;5.93;;
75680;SDS011;64294;49.176;16.626;2023-05-01T09:52:25;14.77;;;5.25;;
75680;SDS011;64294;49.176;16.626;2023-05-01T09:55:10;19.17;;;5.85;;
75680;SDS011;64294;49.176;16.626;2023-05-01T09:57:37;10.85;;;4.70;;
75680;SDS011;64294;49.176;16.626;2023-05-01T10:00:03;9.48;;;5.00;;
75680;SDS011;64294;49.176;16.626;2023-05-01T10:02:32;13.95;;;5.93;;
75680;SDS011;64294;49.176;16.626;2023-05-01T10:04:58;9.68;;;5.03;;
75680;SDS011;64294;49.176;16.626;2023-05-01T10:07:24;12.77;;;5.20;;
75680;SDS011;64294;49.176;16.626;2023-05-01T10:09:51;11.23;;;4.70;;
75680;SDS011;64294;49.176;16.626;2023-05-01T10:12:26;6.00;;;3.90;;
75680;SDS011;64294;49.176;16.626;2023-05-01T10:14:53;8.00;;;4.10;;
75680;SDS011;64294;49.176;16.626;2023-05-01T10:17:20;6.70;;;4.50;;
75680;SDS011;64294;49.176;16.626;2023-05-01T10:19:46;8.25;;;4.45;;
75680;SDS011;64294;49.176;16.626;2023-05-01T10:22:13;7.93;;;4.30;;
75680;SDS011;64294;49.176;16.626;2023-05-01T10:24:39;7.43;;;4.20;;
75680;SDS011;64294;49.176;16.626;2023-05-01T10:27:05;7.45;;;3.85;;
75680;SDS011;64294;49.176;16.626;2023-05-01T10:29:33;5.82;;;3.97;;
75680;SDS011;64294;49.176;16.626;2023-05-01T10:32:01;6.95;;;3.78;;
75680;SDS011;64294;49.176;16.626;2023-05-01T10:34:31;8.32;;;3.83;;
75680;SDS011;64294;49.176;16.626;2023-05-01T10:37:01;14.57;;;4.40;;
75680;SDS011;64294;49.176;16.626;2023-05-01T10:39:32;9.75;;;3.97;;
75680;SDS011;64294;49.176;16.626;2023-05-01T10:42:05;6.50;;;4.00;;
75680;SDS011;64294;49.176;16.626;2023-05-01T10:44:41;7.07;;;3.90;;
75680;SDS011;64294;49.176;16.626;2023-05-01T10:50:11;5.13;;;3.67;;
75680;SDS011;64294;49.176;16.626;2023-05-01T10:55:43;6.45;;;3.90;;
75680;SDS011;64294;49.176;16.626;2023-05-01T10:58:13;6.60;;;3.90;;
75680;SDS011;64294;49.176;16.626;2023-05-01T11:03:58;16.38;;;4.95;;
75680;SDS011;64294;49.176;16.626;2023-05-01T11:06:28;10.77;;;4.57;;
75680;SDS011;64294;49.176;16.626;2023-05-01T11:08:54;8.73;;;3.90;;
75680;SDS011;64294;49.176;16.626;2023-05-01T11:19:03;35.92;;;15.45;;
75680;SDS011;64294;49.176;16.626;2023-05-01T11:21:30;7.30;;;3.97;;
75680;SDS011;64294;49.176;16.626;2023-05-01T11:24:07;10.95;;;4.35;;
75680;SDS011;64294;49.176;16.626;2023-05-01T11:26:40;12.57;;;4.10;;
75680;SDS011;64294;49.176;16.626;2023-05-01T11:29:07;6.57;;;3.92;;
75680;SDS011;64294;49.176;16.626;2023-05-01T11:31:39;6.30;;;3.80;;
75680;SDS011;64294;49.176;16.626;2023-05-01T11:34:05;6.35;;;3.53;;
75680;SDS011;64294;49.176;16.626;2023-05-01T11:36:50;7.57;;;4.20;;
75680;SDS011;64294;49.176;16.626;2023-05-01T11:39:16;9.90;;;4.20;;
75680;SDS011;64294;49.176;16.626;2023-05-01T11:41:42;11.85;;;4.68;;
75680;SDS011;64294;49.176;16.626;2023-05-01T11:44:10;12.57;;;4.28;;
75680;SDS011;64294;49.176;16.626;2023-05-01T11:46:36;12.25;;;3.65;;
75680;SDS011;64294;49.176;16.626;2023-05-01T11:49:02;18.55;;;4.80;;
75680;SDS011;64294;49.176;16.626;2023-05-01T11:51:28;9.82;;;4.38;;
75680;SDS011;64294;49.176;16.626;2023-05-01T11:53:57;11.07;;;3.67;;
75680;SDS011;64294;49.176;16.626;2023-05-01T11:56:24;9.48;;;3.97;;
75680;SDS011;64294;49.176;16.626;2023-05-01T11:58:50;16.90;;;5.00;;
75680;SDS011;64294;49.176;16.626;2023-05-01T12:01:17;8.95;;;4.00;;
75680;SDS011;64294;49.176;16.626;2023-05-01T12:03:42;6.95;;;3.60;;
75680;SDS011;64294;49.176;16.626;2023-05-01T12:06:11;5.60;;;3.40;;
75680;SDS011;64294;49.176;16.626;2023-05-01T12:08:43;7.93;;;3.72;;
75680;SDS011;64294;49.176;16.626;2023-05-01T12:11:14;7.03;;;3.40;;
75680;SDS011;64294;49.176;16.626;2023-05-01T12:13:40;7.63;;;3.55;;
75680;SDS011;64294;49.176;16.626;2023-05-01T12:16:06;6.60;;;3.03;;
75680;SDS011;64294;49.176;16.626;2023-05-01T12:18:33;7.70;;;3.47;;
75680;SDS011;64294;49.176;16.626;2023-05-01T12:20:59;7.13;;;3.22;;
75680;SDS011;64294;49.176;16.626;2023-05-01T12:23:33;7.05;;;3.35;;
75680;SDS011;64294;49.176;16.626;2023-05-01T12:26:01;5.63;;;3.05;;
75680;SDS011;64294;49.176;16.626;2023-05-01T12:28:51;4.43;;;2.90;;
75680;SDS011;64294;49.176;16.626;2023-05-01T12:31:20;5.50;;;2.92;;
75680;SDS011;64294;49.176;16.626;2023-05-01T12:33:53;8.20;;;3.25;;
75680;SDS011;64294;49.176;16.626;2023-05-01T12:36:21;6.65;;;2.83;;
75680;SDS011;64294;49.176;16.626;2023-05-01T12:41:32;8.23;;;3.28;;
75680;SDS011;64294;49.176;16.626;2023-05-01T12:44:00;12.00;;;3.85;;
75680;SDS011;64294;49.176;16.626;2023-05-01T12:46:26;10.15;;;3.60;;
75680;SDS011;64294;49.176;16.626;2023-05-01T12:48:52;10.45;;;2.90;;
75680;SDS011;64294;49.176;16.626;2023-05-01T12:51:18;6.43;;;3.10;;
75680;SDS011;64294;49.176;16.626;2023-05-01T12:53:45;6.75;;;3.42;;
75680;SDS011;64294;49.176;16.626;2023-05-01T12:56:19;7.32;;;3.30;;
75680;SDS011;64294;49.176;16.626;2023-05-01T12:58:49;13.13;;;3.25;;
75680;SDS011;64294;49.176;16.626;2023-05-01T13:01:23;5.03;;;2.80;;
75680;SDS011;64294;49.176;16.626;2023-05-01T13:03:52;9.13;;;3.10;;
75680;SDS011;64294;49.176;16.626;2023-05-01T13:06:20;9.65;;;2.90;;
75680;SDS011;64294;49.176;16.626;2023-05-01T13:08:46;8.25;;;3.17;;
75680;SDS011;64294;49.176;16.626;2023-05-01T13:11:13;10.10;;;3.10;;
75680;SDS011;64294;49.176;16.626;2023-05-01T13:13:40;15.05;;;3.53;;
75680;SDS011;64294;49.176;16.626;2023-05-01T13:16:11;5.25;;;3.03;;
75680;SDS011;64294;49.176;16.626;2023-05-01T13:18:42;9.55;;;3.10;;
75680;SDS011;64294;49.176;16.626;2023-05-01T13:21:09;10.63;;;3.80;;
75680;SDS011;64294;49.176;16.626;2023-05-01T13:23:36;8.73;;;3.50;;
75680;SDS011;64294;49.176;16.626;2023-05-01T13:26:02;6.80;;;2.80;;
75680;SDS011;64294;49.176;16.626;2023-05-01T13:28:30;8.00;;;3.20;;
75680;SDS011;64294;49.176;16.626;2023-05-01T13:30:57;20.77;;;3.67;;
75680;SDS011;64294;49.176;16.626;2023-05-01T13:33:22;10.25;;;3.50;;
75680;SDS011;64294;49.176;16.626;2023-05-01T13:35:48;11.45;;;3.25;;
75680;SDS011;64294;49.176;16.626;2023-05-01T13:38:13;4.05;;;2.88;;
75680;SDS011;64294;49.176;16.626;2023-05-01T13:40:39;3.80;;;2.83;;
75680;SDS011;64294;49.176;16.626;2023-05-01T13:43:08;7.40;;;3.03;;
75680;SDS011;64294;49.176;16.626;2023-05-01T13:45:37;10.95;;;3.38;;
75680;SDS011;64294;49.176;16.626;2023-05-01T13:48:03;8.85;;;3.10;;
75680;SDS011;64294;49.176;16.626;2023-05-01T13:50:29;10.98;;;3.60;;
75680;SDS011;64294;49.176;16.626;2023-05-01T13:52:54;12.98;;;3.30;;
75680;SDS011;64294;49.176;16.626;2023-05-01T13:55:20;7.82;;;3.30;;
75680;SDS011;64294;49.176;16.626;2023-05-01T13:57:47;5.50;;;3.20;;
75680;SDS011;64294;49.176;16.626;2023-05-01T14:00:13;6.65;;;2.80;;
75680;SDS011;64294;49.176;16.626;2023-05-01T14:02:43;4.13;;;2.95;;
75680;SDS011;64294;49.176;16.626;2023-05-01T14:05:12;4.75;;;2.90;;
75680;SDS011;64294;49.176;16.626;2023-05-01T14:07:42;6.75;;;3.00;;
75680;SDS011;64294;49.176;16.626;2023-05-01T14:10:17;4.07;;;2.85;;
75680;SDS011;64294;49.176;16.626;2023-05-01T14:12:43;9.73;;;3.10;;
75680;SDS011;64294;49.176;16.626;2023-05-01T14:15:09;14.55;;;4.00;;
75680;SDS011;64294;49.176;16.626;2023-05-01T14:17:36;21.17;;;3.65;;
75680;SDS011;64294;49.176;16.626;2023-05-01T14:20:03;4.32;;;2.63;;
75680;SDS011;64294;49.176;16.626;2023-05-01T14:22:42;4.60;;;3.08;;
75680;SDS011;64294;49.176;16.626;2023-05-01T14:25:31;10.52;;;3.22;;
75680;SDS011;64294;49.176;16.626;2023-05-01T14:27:58;13.77;;;3.40;;
75680;SDS011;64294;49.176;16.626;2023-05-01T14:30:32;19.17;;;3.65;;
75680;SDS011;64294;49.176;16.626;2023-05-01T14:33:02;13.02;;;2.83;;
75680;SDS011;64294;49.176;16.626;2023-05-01T14:35:29;7.47;;;2.80;;
75680;SDS011;64294;49.176;16.626;2023-05-01T14:37:54;4.68;;;2.85;;
75680;SDS011;64294;49.176;16.626;2023-05-01T14:40:25;6.22;;;3.17;;
75680;SDS011;64294;49.176;16.626;2023-05-01T14:42:51;7.63;;;3.10;;
75680;SDS011;64294;49.176;16.626;2023-05-01T14:45:21;5.32;;;2.67;;
75680;SDS011;64294;49.176;16.626;2023-05-01T14:47:47;6.15;;;2.80;;
75680;SDS011;64294;49.176;16.626;2023-05-01T14:50:20;6.65;;;2.90;;
75680;SDS011;64294;49.176;16.626;2023-05-01T14:55:25;7.80;;;3.00;;
75680;SDS011;64294;49.176;16.626;2023-05-01T14:57:53;3.65;;;3.03;;
75680;SDS011;64294;49.176;16.626;2023-05-01T15:00:21;9.48;;;2.95;;
75680;SDS011;64294;49.176;16.626;2023-05-01T15:02:48;13.38;;;3.40;;
75680;SDS011;64294;49.176;16.626;2023-05-01T15:05:14;6.40;;;3.20;;